createdAt,value
2022-07-26T00:02:06.913Z,5.50
2022-07-26T00:04:35.059Z,5.40
2022-07-26T00:07:03.128Z,5.57
2022-07-26T00:09:31.580Z,5.55
2022-07-26T00:11:59.548Z,5.23
2022-07-26T00:14:27.663Z,5.47
2022-07-26T00:16:57.182Z,5.35
2022-07-26T00:19:25.445Z,5.32
2022-07-26T00:22:14.044Z,4.88
2022-07-26T00:24:42.062Z,5.27
2022-07-26T00:27:10.115Z,5.03
2022-07-26T00:29:38.107Z,5.32
2022-07-26T00:32:08.032Z,5.10
2022-07-26T00:34:36.295Z,4.95
2022-07-26T00:37:04.469Z,5.13
2022-07-26T00:39:32.539Z,5.50
2022-07-26T00:42:00.584Z,4.97
2022-07-26T00:44:38.016Z,5.40
2022-07-26T00:47:08.028Z,4.90
2022-07-26T00:49:36.097Z,5.20
2022-07-26T00:52:05.928Z,4.68
2022-07-26T00:54:34.119Z,4.60
2022-07-26T00:57:02.247Z,5.05
2022-07-26T00:59:30.635Z,5.00
2022-07-26T01:01:58.955Z,4.60
2022-07-26T01:04:28.824Z,4.72
2022-07-26T01:06:57.111Z,4.43
2022-07-26T01:09:25.499Z,4.68
2022-07-26T01:11:53.568Z,4.97
2022-07-26T01:14:22.287Z,4.73
2022-07-26T01:16:51.257Z,4.57
2022-07-26T01:19:20.261Z,4.97
2022-07-26T01:21:49.923Z,4.35
2022-07-26T01:24:17.925Z,4.72
2022-07-26T01:26:46.503Z,4.60
2022-07-26T01:29:14.584Z,4.65
2022-07-26T01:31:42.626Z,4.43
2022-07-26T01:34:11.088Z,4.43
2022-07-26T01:36:39.669Z,4.22
2022-07-26T01:39:09.390Z,4.97
2022-07-26T01:41:38.554Z,4.70
2022-07-26T01:44:08.320Z,4.43
2022-07-26T01:46:37.058Z,5.00
2022-07-26T01:49:07.201Z,4.47
2022-07-26T01:51:35.528Z,4.40
2022-07-26T01:54:05.065Z,4.57
2022-07-26T01:56:34.732Z,5.13
2022-07-26T01:59:02.759Z,5.10
2022-07-26T02:01:37.978Z,4.22
2022-07-26T02:04:08.261Z,4.13
2022-07-26T02:06:37.287Z,5.18
2022-07-26T02:09:07.542Z,4.50
2022-07-26T02:11:37.128Z,4.40
2022-07-26T02:14:05.466Z,5.10
2022-07-26T02:16:33.675Z,5.10
2022-07-26T02:19:01.712Z,5.05
2022-07-26T02:21:29.717Z,5.60
2022-07-26T02:23:57.710Z,5.30
2022-07-26T02:26:25.794Z,5.32
2022-07-26T02:28:55.157Z,5.90
2022-07-26T02:31:23.311Z,5.43
2022-07-26T02:34:00.281Z,5.43
2022-07-26T02:36:28.375Z,5.63
2022-07-26T02:38:56.425Z,5.47
2022-07-26T02:41:24.641Z,5.70
2022-07-26T02:43:54.085Z,5.72
2022-07-26T02:46:22.203Z,6.03
2022-07-26T02:48:50.551Z,5.57
2022-07-26T02:51:19.960Z,5.45
2022-07-26T02:53:47.971Z,5.20
2022-07-26T02:56:15.999Z,5.70
2022-07-26T02:58:44.590Z,6.13
2022-07-26T03:01:14.372Z,5.72
2022-07-26T03:03:45.912Z,6.10
2022-07-26T03:06:16.744Z,5.80
2022-07-26T03:08:44.753Z,6.40
2022-07-26T03:11:12.735Z,6.15
2022-07-26T03:13:40.948Z,6.13
2022-07-26T03:16:09.409Z,6.57
2022-07-26T03:18:38.994Z,6.90
2022-07-26T03:21:07.549Z,6.63
2022-07-26T03:23:35.587Z,6.40
2022-07-26T03:26:04.407Z,5.95
2022-07-26T03:28:32.696Z,6.40
2022-07-26T03:31:00.987Z,5.90
2022-07-26T03:33:29.351Z,6.53
2022-07-26T03:35:58.793Z,5.63
2022-07-26T03:38:29.007Z,6.53
2022-07-26T03:40:57.001Z,6.40
2022-07-26T03:43:25.073Z,6.47
2022-07-26T03:45:54.575Z,6.32
2022-07-26T03:48:23.302Z,6.97
2022-07-26T03:50:51.319Z,6.28
2022-07-26T03:53:20.823Z,6.10
2022-07-26T03:56:06.486Z,6.33
2022-07-26T03:58:34.658Z,7.00
2022-07-26T04:01:02.705Z,6.47
2022-07-26T04:03:30.764Z,5.80
2022-07-26T04:05:58.988Z,6.18
2022-07-26T04:08:29.140Z,7.07
2022-07-26T04:10:57.405Z,6.70
2022-07-26T04:13:25.401Z,6.68
2022-07-26T04:15:53.498Z,7.18
2022-07-26T04:18:21.525Z,6.18
2022-07-26T04:20:52.850Z,6.90
2022-07-26T04:23:20.934Z,6.75
2022-07-26T04:25:50.514Z,6.45
2022-07-26T04:28:18.536Z,7.10
2022-07-26T04:30:46.915Z,6.35
2022-07-26T04:33:14.958Z,6.30
2022-07-26T04:35:42.955Z,7.43
2022-07-26T04:38:11.329Z,7.50
2022-07-26T04:40:40.844Z,7.25
2022-07-26T04:43:15.607Z,7.28
2022-07-26T04:45:44.053Z,7.80
2022-07-26T04:48:12.010Z,6.68
2022-07-26T04:50:40.497Z,6.85
2022-07-26T04:53:09.344Z,6.78
2022-07-26T04:55:37.332Z,7.47
2022-07-26T04:58:05.682Z,7.33
2022-07-26T05:00:56.483Z,7.47
2022-07-26T05:03:25.169Z,7.03
2022-07-26T05:05:53.857Z,6.82
2022-07-26T05:08:21.977Z,7.15
2022-07-26T05:10:55.150Z,7.07
2022-07-26T05:13:30.549Z,7.30
2022-07-26T05:16:01.845Z,6.45
2022-07-26T05:18:49.293Z,7.22
2022-07-26T05:21:18.541Z,7.30
2022-07-26T05:23:46.832Z,6.50
2022-07-26T05:26:14.893Z,6.47
2022-07-26T05:28:43.028Z,6.28
2022-07-26T05:31:12.535Z,5.90
2022-07-26T05:33:40.674Z,6.20
2022-07-26T05:36:09.600Z,6.00
2022-07-26T05:38:38.236Z,5.45
2022-07-26T05:41:07.200Z,4.43
2022-07-26T05:43:41.661Z,4.10
2022-07-26T05:46:13.055Z,4.28
2022-07-26T05:48:41.379Z,4.43
2022-07-26T05:51:10.086Z,4.00
2022-07-26T05:53:38.883Z,4.15
2022-07-26T05:56:07.846Z,3.33
2022-07-26T05:58:35.957Z,3.67
2022-07-26T06:01:03.952Z,3.67
2022-07-26T06:03:33.545Z,3.50
2022-07-26T06:06:01.561Z,3.13
2022-07-26T06:08:30.023Z,3.83
2022-07-26T06:10:58.281Z,3.70
2022-07-26T06:13:26.349Z,3.50
2022-07-26T06:15:54.440Z,3.25
2022-07-26T06:18:22.800Z,3.55
2022-07-26T06:20:52.209Z,3.17
2022-07-26T06:23:33.804Z,3.13
2022-07-26T06:26:03.475Z,3.13
2022-07-26T06:28:31.684Z,2.97
2022-07-26T06:30:59.760Z,2.58
2022-07-26T06:33:27.773Z,3.10
2022-07-26T06:35:57.185Z,2.65
2022-07-26T06:38:25.438Z,2.60
2022-07-26T06:40:53.462Z,2.50
2022-07-26T06:43:21.881Z,2.80
2022-07-26T06:45:50.585Z,2.97
2022-07-26T06:48:18.760Z,3.15
2022-07-26T06:50:46.794Z,3.30
2022-07-26T06:53:16.315Z,2.65
2022-07-26T06:55:44.757Z,2.35
2022-07-26T06:58:13.939Z,2.85
2022-07-26T07:00:42.148Z,2.60
2022-07-26T07:03:10.178Z,2.60
2022-07-26T07:05:38.187Z,2.33
2022-07-26T07:08:07.411Z,2.30
2022-07-26T07:10:37.009Z,2.00
2022-07-26T07:13:05.032Z,2.20
2022-07-26T07:15:33.099Z,1.97
2022-07-26T07:18:01.116Z,1.98
2022-07-26T07:20:29.625Z,2.22
2022-07-26T07:22:57.751Z,2.20
2022-07-26T07:25:30.418Z,2.10
2022-07-26T07:28:00.690Z,2.30
2022-07-26T07:30:29.262Z,2.00
2022-07-26T07:32:57.404Z,2.28
2022-07-26T07:35:32.073Z,1.77
2022-07-26T07:38:01.362Z,2.10
2022-07-26T07:40:30.478Z,2.20
2022-07-26T07:43:00.425Z,2.20
2022-07-26T07:45:28.703Z,2.03
2022-07-26T07:47:56.769Z,2.25
2022-07-26T07:50:28.487Z,2.10
2022-07-26T07:52:59.214Z,2.00
2022-07-26T07:55:46.081Z,2.10
2022-07-26T07:58:17.387Z,2.40
2022-07-26T08:00:48.164Z,2.05
2022-07-26T08:03:18.046Z,1.98
2022-07-26T08:05:49.984Z,1.93
2022-07-26T08:08:22.077Z,1.80
2022-07-26T08:10:52.766Z,1.80
2022-07-26T08:13:23.336Z,1.88
2022-07-26T08:15:51.946Z,2.08
2022-07-26T08:18:22.449Z,2.03
2022-07-26T08:20:51.684Z,2.25
2022-07-26T08:23:20.456Z,1.80
2022-07-26T08:25:56.343Z,2.00
2022-07-26T08:31:15.490Z,2.10
2022-07-26T08:33:45.780Z,2.00
2022-07-26T08:36:15.109Z,2.25
2022-07-26T08:38:43.212Z,2.00
2022-07-26T08:41:11.282Z,1.80
2022-07-26T08:43:51.536Z,2.13
2022-07-26T08:46:25.201Z,1.67
2022-07-26T08:48:54.921Z,1.58
2022-07-26T08:51:25.014Z,1.83
2022-07-26T08:54:01.902Z,1.60
2022-07-26T08:56:33.303Z,2.00
2022-07-26T08:59:07.036Z,1.65
2022-07-26T09:01:35.748Z,1.58
2022-07-26T09:04:30.965Z,1.50
2022-07-26T09:07:05.158Z,2.10
2022-07-26T09:09:34.206Z,2.00
2022-07-26T09:12:17.046Z,1.80
2022-07-26T09:14:47.714Z,1.70
2022-07-26T09:17:18.420Z,2.08
2022-07-26T09:19:47.270Z,1.70
2022-07-26T09:22:17.283Z,1.63
2022-07-26T09:24:46.804Z,1.70
2022-07-26T09:27:17.033Z,1.92
2022-07-26T09:29:52.093Z,1.63
2022-07-26T09:32:21.945Z,1.70
2022-07-26T09:34:53.327Z,1.67
2022-07-26T09:37:35.758Z,1.65
2022-07-26T09:40:07.122Z,1.38
2022-07-26T09:42:35.393Z,1.83
2022-07-26T09:45:16.774Z,1.70
2022-07-26T09:47:44.757Z,1.83
2022-07-26T09:50:15.227Z,1.80
2022-07-26T09:53:03.172Z,1.50
2022-07-26T09:55:42.433Z,1.60
2022-07-26T09:58:14.894Z,1.67
2022-07-26T10:00:45.098Z,1.37
2022-07-26T10:03:13.785Z,1.75
2022-07-26T10:05:42.360Z,1.50
2022-07-26T10:08:10.823Z,1.90
2022-07-26T10:10:44.524Z,1.92
2022-07-26T10:13:13.014Z,2.00
2022-07-26T10:15:46.698Z,1.67
2022-07-26T10:18:51.201Z,1.33
2022-07-26T10:21:21.109Z,1.40
2022-07-26T10:23:50.486Z,1.63
2022-07-26T10:26:40.665Z,2.30
2022-07-26T10:29:21.958Z,1.67
2022-07-26T10:32:17.048Z,1.70
2022-07-26T10:34:46.374Z,1.83
2022-07-26T10:37:24.767Z,1.90
2022-07-26T10:40:22.782Z,1.53
2022-07-26T10:42:50.969Z,1.90
2022-07-26T10:45:22.120Z,1.50
2022-07-26T10:48:12.264Z,1.58
2022-07-26T10:50:40.934Z,1.67
2022-07-26T10:53:10.164Z,1.80
2022-07-26T10:55:52.906Z,1.70
2022-07-26T10:58:22.172Z,1.70
2022-07-26T11:00:58.879Z,1.75
2022-07-26T11:03:38.813Z,1.60
2022-07-26T11:06:12.368Z,1.50
2022-07-26T11:08:43.448Z,1.25
2022-07-26T11:11:27.755Z,1.80
2022-07-26T11:14:05.472Z,1.63
2022-07-26T11:16:38.817Z,1.40
2022-07-26T11:19:16.063Z,1.33
2022-07-26T11:21:44.941Z,1.58
2022-07-26T11:24:13.800Z,1.42
2022-07-26T11:26:43.312Z,1.60
2022-07-26T11:29:16.775Z,1.63
2022-07-26T11:31:50.537Z,1.40
2022-07-26T11:34:30.853Z,1.50
2022-07-26T11:37:00.321Z,1.60
2022-07-26T11:39:30.553Z,1.75
2022-07-26T11:42:00.271Z,1.38
2022-07-26T11:44:29.072Z,1.37
2022-07-26T11:46:58.462Z,1.63
2022-07-26T11:49:59.699Z,1.70
2022-07-26T11:52:24.870Z,1.52
2022-07-26T11:54:54.646Z,2.75
2022-07-26T11:57:22.808Z,1.67
2022-07-26T11:59:51.585Z,1.50
2022-07-26T12:02:22.337Z,1.77
2022-07-26T12:05:14.138Z,1.90
2022-07-26T12:07:57.637Z,1.40
2022-07-26T12:10:25.820Z,1.53
2022-07-26T12:13:09.028Z,1.60
2022-07-26T12:15:48.164Z,1.30
2022-07-26T12:18:27.298Z,1.27
2022-07-26T12:21:05.196Z,1.73
2022-07-26T12:23:53.134Z,1.50
2022-07-26T12:26:23.071Z,1.80
2022-07-26T12:28:51.115Z,1.88
2022-07-26T12:31:27.087Z,1.83
2022-07-26T12:33:55.267Z,1.50
2022-07-26T12:36:28.250Z,1.90
2022-07-26T12:38:58.136Z,1.77
2022-07-26T12:41:36.241Z,1.90
2022-07-26T12:44:05.200Z,1.50
2022-07-26T12:46:34.396Z,1.60
2022-07-26T12:49:02.951Z,1.40
2022-07-26T12:51:32.671Z,1.90
2022-07-26T12:54:00.785Z,1.90
2022-07-26T12:56:28.867Z,1.52
2022-07-26T12:59:01.376Z,1.95
2022-07-26T13:01:30.201Z,1.60
2022-07-26T13:03:58.430Z,1.85
2022-07-26T13:06:26.526Z,1.70
2022-07-26T13:08:56.502Z,1.38
2022-07-26T13:11:24.965Z,1.60
2022-07-26T13:13:53.270Z,1.47
2022-07-26T13:16:21.338Z,1.58
2022-07-26T13:18:49.407Z,1.70
2022-07-26T13:21:17.706Z,1.30
2022-07-26T13:23:45.967Z,1.40
2022-07-26T13:26:15.347Z,1.50
2022-07-26T13:28:44.469Z,1.30
2022-07-26T13:31:17.699Z,1.70
2022-07-26T13:33:45.830Z,1.35
2022-07-26T13:36:14.110Z,1.52
2022-07-26T13:38:42.974Z,1.67
2022-07-26T13:41:11.153Z,1.55
2022-07-26T13:43:40.787Z,1.40
2022-07-26T13:46:09.011Z,1.77
2022-07-26T13:48:37.443Z,1.55
2022-07-26T13:51:06.147Z,1.50
2022-07-26T13:53:34.178Z,1.30
2022-07-26T13:56:02.214Z,1.23
2022-07-26T13:58:30.297Z,1.42
2022-07-26T14:00:59.756Z,1.17
2022-07-26T14:03:32.079Z,1.37
2022-07-26T14:06:03.106Z,1.40
2022-07-26T14:08:31.291Z,1.20
2022-07-26T14:10:59.290Z,1.30
2022-07-26T14:13:27.342Z,1.05
2022-07-26T14:15:55.536Z,1.10
2022-07-26T14:18:24.982Z,1.42
2022-07-26T14:20:52.997Z,1.20
2022-07-26T14:23:21.057Z,1.10
2022-07-26T14:25:49.129Z,1.10
2022-07-26T14:28:17.119Z,1.30
2022-07-26T14:30:45.104Z,0.90
2022-07-26T14:33:13.219Z,0.80
2022-07-26T14:35:43.948Z,1.30
2022-07-26T14:38:12.268Z,1.02
2022-07-26T14:40:41.395Z,1.07
2022-07-26T14:43:09.435Z,1.10
2022-07-26T14:45:37.640Z,1.17
2022-07-26T14:48:06.202Z,1.00
2022-07-26T14:50:53.056Z,1.15
2022-07-26T14:53:24.820Z,1.17
2022-07-26T14:55:52.932Z,1.23
2022-07-26T14:58:21.018Z,0.98
2022-07-26T15:00:49.249Z,1.08
2022-07-26T15:03:17.324Z,1.02
2022-07-26T15:05:45.534Z,0.93
2022-07-26T15:08:13.580Z,0.98
2022-07-26T15:10:43.172Z,0.88
2022-07-26T15:13:11.937Z,1.00
2022-07-26T15:15:40.079Z,1.05
2022-07-26T15:18:08.126Z,0.87
2022-07-26T15:20:38.939Z,1.33
2022-07-26T15:23:07.637Z,1.17
2022-07-26T15:25:37.169Z,1.13
2022-07-26T15:28:06.812Z,0.80
2022-07-26T15:30:36.227Z,1.13
2022-07-26T15:33:04.251Z,1.02
2022-07-26T15:35:32.750Z,1.23
2022-07-26T15:38:01.562Z,0.88
2022-07-26T15:40:29.822Z,0.90
2022-07-26T15:42:58.068Z,1.03
2022-07-26T15:45:27.968Z,1.40
2022-07-26T15:48:10.577Z,0.88
2022-07-26T15:50:43.724Z,1.00
2022-07-26T15:53:12.070Z,0.90
2022-07-26T15:55:40.708Z,0.90
2022-07-26T15:58:08.772Z,0.90
2022-07-26T16:00:38.329Z,0.90
2022-07-26T16:03:06.454Z,1.00
2022-07-26T16:05:34.680Z,0.95
2022-07-26T16:08:02.719Z,1.03
2022-07-26T16:10:32.206Z,1.13
2022-07-26T16:13:01.429Z,1.17
2022-07-26T16:15:29.487Z,0.90
2022-07-26T16:18:02.918Z,1.05
2022-07-26T16:20:34.336Z,0.83
2022-07-26T16:23:02.360Z,0.73
2022-07-26T16:25:30.370Z,1.30
2022-07-26T16:27:58.567Z,1.00
2022-07-26T16:30:26.694Z,1.00
2022-07-26T16:32:54.738Z,0.90
2022-07-26T16:35:24.396Z,1.10
2022-07-26T16:37:52.401Z,1.10
2022-07-26T16:40:20.451Z,1.00
2022-07-26T16:42:48.468Z,0.88
2022-07-26T16:45:16.530Z,1.20
2022-07-26T16:47:44.764Z,1.10
2022-07-26T16:50:12.848Z,0.90
2022-07-26T16:52:54.515Z,1.25
2022-07-26T16:55:22.523Z,1.10
2022-07-26T16:57:50.515Z,1.10
2022-07-26T17:00:22.137Z,1.23
2022-07-26T17:02:50.745Z,0.98
2022-07-26T17:05:18.824Z,1.30
2022-07-26T17:07:46.870Z,1.10
2022-07-26T17:10:16.364Z,1.00
2022-07-26T17:12:44.517Z,1.10
2022-07-26T17:15:15.481Z,1.08
2022-07-26T17:17:48.381Z,0.90
2022-07-26T17:20:16.864Z,1.00
2022-07-26T17:22:44.922Z,0.70
2022-07-26T17:25:13.139Z,1.13
2022-07-26T17:27:42.566Z,1.00
2022-07-26T17:30:11.734Z,0.80
2022-07-26T17:32:39.836Z,1.02
2022-07-26T17:35:08.978Z,1.07
2022-07-26T17:37:37.286Z,1.00
2022-07-26T17:40:07.969Z,0.82
2022-07-26T17:42:36.638Z,0.93
2022-07-26T17:45:07.379Z,1.00
2022-07-26T17:47:35.398Z,1.10
2022-07-26T17:50:34.021Z,0.90
2022-07-26T17:52:54.625Z,1.00
2022-07-26T17:55:23.020Z,0.90
2022-07-26T17:57:51.881Z,0.98
2022-07-26T18:00:23.757Z,1.00
2022-07-26T18:02:56.886Z,0.90
2022-07-26T18:05:32.084Z,0.80
2022-07-26T18:08:02.418Z,0.70
2022-07-26T18:10:30.528Z,0.90
2022-07-26T18:12:58.618Z,0.90
2022-07-26T18:15:28.073Z,0.80
2022-07-26T18:17:56.170Z,0.80
2022-07-26T18:20:24.522Z,0.80
2022-07-26T18:22:53.823Z,0.80
2022-07-26T18:25:21.914Z,1.00
2022-07-26T18:27:49.924Z,0.82
2022-07-26T18:30:17.994Z,0.70
2022-07-26T18:32:47.615Z,0.80
2022-07-26T18:35:15.660Z,1.00
2022-07-26T18:37:43.688Z,1.07
2022-07-26T18:40:12.212Z,1.00
2022-07-26T18:42:40.232Z,0.82
2022-07-26T18:45:09.200Z,0.63
2022-07-26T18:47:37.515Z,0.93
2022-07-26T18:50:09.034Z,0.63
2022-07-26T18:52:37.302Z,1.00
2022-07-26T18:55:08.415Z,0.70
2022-07-26T18:57:36.709Z,0.60
2022-07-26T19:00:06.373Z,0.77
2022-07-26T19:02:34.408Z,0.90
2022-07-26T19:05:02.522Z,0.70
2022-07-26T19:07:32.712Z,0.80
2022-07-26T19:10:00.963Z,0.93
2022-07-26T19:12:29.487Z,0.90
2022-07-26T19:14:59.840Z,0.70
2022-07-26T19:17:30.283Z,0.80
2022-07-26T19:20:01.204Z,0.90
2022-07-26T19:22:30.462Z,0.75
2022-07-26T19:25:00.280Z,0.70
2022-07-26T19:27:28.724Z,0.90
2022-07-26T19:29:57.374Z,1.00
2022-07-26T19:32:29.053Z,0.98
2022-07-26T19:34:59.880Z,1.00
2022-07-26T19:37:27.911Z,1.13
2022-07-26T19:40:00.282Z,1.00
2022-07-26T19:42:32.311Z,1.02
2022-07-26T19:45:00.502Z,1.00
2022-07-26T19:47:29.763Z,0.80
2022-07-26T19:49:58.718Z,1.00
2022-07-26T19:52:26.779Z,0.80
2022-07-26T19:54:54.824Z,1.02
2022-07-26T19:57:22.891Z,1.00
2022-07-26T19:59:52.388Z,1.10
2022-07-26T20:02:20.528Z,0.90
2022-07-26T20:04:50.812Z,1.23
2022-07-26T20:07:19.653Z,0.90
2022-07-26T20:09:48.589Z,0.90
2022-07-26T20:12:17.296Z,1.20
2022-07-26T20:14:45.563Z,0.88
2022-07-26T20:17:15.325Z,1.10
2022-07-26T20:19:43.489Z,1.10
2022-07-26T20:22:12.353Z,1.10
2022-07-26T20:24:40.425Z,1.15
2022-07-26T20:27:08.702Z,1.20
2022-07-26T20:29:37.151Z,1.20
2022-07-26T20:32:05.636Z,1.10
2022-07-26T20:34:35.136Z,1.10
2022-07-26T20:37:03.204Z,1.10
2022-07-26T20:39:31.211Z,1.20
2022-07-26T20:41:59.354Z,1.20
2022-07-26T20:44:29.622Z,1.30
2022-07-26T20:46:57.705Z,1.30
2022-07-26T20:49:25.934Z,1.10
2022-07-26T20:51:55.546Z,1.10
2022-07-26T20:54:23.602Z,1.40
2022-07-26T20:56:51.853Z,1.20
2022-07-26T20:59:19.844Z,1.10
2022-07-26T21:01:47.952Z,1.30
2022-07-26T21:04:16.143Z,1.25
2022-07-26T21:06:44.324Z,1.40
2022-07-26T21:09:13.925Z,1.40
2022-07-26T21:11:42.193Z,1.48
2022-07-26T21:14:10.200Z,1.30
2022-07-26T21:16:38.623Z,1.70
2022-07-26T21:19:06.915Z,1.23
2022-07-26T21:21:36.995Z,1.20
2022-07-26T21:24:05.953Z,1.40
2022-07-26T21:26:35.475Z,1.23
2022-07-26T21:29:03.656Z,1.45
2022-07-26T21:31:31.907Z,1.70
2022-07-26T21:33:59.990Z,1.67
2022-07-26T21:36:28.036Z,1.95
2022-07-26T21:38:56.110Z,1.80
2022-07-26T21:41:24.239Z,1.92
2022-07-26T21:43:53.613Z,1.80
2022-07-26T21:46:21.799Z,1.40
2022-07-26T21:48:49.996Z,1.42
2022-07-26T21:51:18.155Z,1.60
2022-07-26T21:53:46.889Z,1.60
2022-07-26T21:56:14.922Z,1.60
2022-07-26T21:58:42.985Z,1.42
2022-07-26T22:01:12.784Z,1.20
2022-07-26T22:03:42.748Z,1.42
2022-07-26T22:06:11.278Z,1.48
2022-07-26T22:08:39.727Z,1.67
2022-07-26T22:11:08.025Z,1.40
2022-07-26T22:13:36.455Z,1.25
2022-07-26T22:16:05.093Z,1.40
2022-07-26T22:18:34.568Z,1.60
2022-07-26T22:21:02.748Z,1.40
2022-07-26T22:23:31.015Z,1.50
2022-07-26T22:26:01.672Z,1.40
2022-07-26T22:28:30.514Z,1.83
2022-07-26T22:30:58.647Z,1.48
2022-07-26T22:33:26.909Z,1.83
2022-07-26T22:35:56.405Z,1.83
2022-07-26T22:38:24.456Z,1.63
2022-07-26T22:40:52.508Z,1.70
2022-07-26T22:43:20.548Z,1.30
2022-07-26T22:45:48.595Z,1.60
2022-07-26T22:48:16.673Z,1.55
2022-07-26T22:50:44.749Z,1.80
2022-07-26T22:53:14.139Z,1.63
2022-07-26T22:55:42.151Z,1.52
2022-07-26T22:58:10.248Z,1.83
2022-07-26T23:00:38.386Z,1.70
2022-07-26T23:03:15.967Z,1.58
2022-07-26T23:05:49.694Z,1.40
2022-07-26T23:11:07.761Z,1.60
2022-07-26T23:13:35.774Z,1.70
2022-07-26T23:16:04.053Z,1.90
2022-07-26T23:18:32.854Z,1.70
2022-07-26T23:21:01.170Z,1.88
2022-07-26T23:23:30.591Z,1.77
2022-07-26T23:25:59.586Z,1.70
2022-07-26T23:28:37.508Z,1.55
2022-07-26T23:31:07.867Z,1.88
2022-07-26T23:33:53.369Z,1.70
2022-07-26T23:36:26.644Z,1.70
2022-07-26T23:38:58.416Z,1.85
2022-07-26T23:41:27.034Z,1.90
2022-07-26T23:43:55.466Z,2.05
2022-07-26T23:46:24.201Z,2.00
2022-07-26T23:48:53.079Z,1.80
2022-07-26T23:51:22.814Z,1.73
2022-07-26T23:53:51.015Z,2.00
2022-07-26T23:56:20.697Z,2.33
2022-07-26T23:58:49.102Z,2.10
